createdAt,value
2022-11-24T00:02:16.990Z,4.13
2022-11-24T00:04:43.386Z,3.40
2022-11-24T00:07:09.803Z,3.40
2022-11-24T00:09:36.216Z,3.85
2022-11-24T00:12:02.740Z,3.97
2022-11-24T00:14:29.218Z,3.92
2022-11-24T00:16:55.700Z,3.55
2022-11-24T00:19:22.158Z,3.95
2022-11-24T00:21:48.594Z,4.32
2022-11-24T00:24:17.187Z,4.00
2022-11-24T00:26:43.552Z,3.50
2022-11-24T00:29:11.504Z,3.22
2022-11-24T00:31:40.291Z,3.67
2022-11-24T00:34:10.333Z,3.28
2022-11-24T00:36:37.613Z,3.45
2022-11-24T00:39:06.554Z,3.65
2022-11-24T00:41:33.638Z,3.47
2022-11-24T00:44:00.557Z,3.92
2022-11-24T00:46:28.396Z,3.28
2022-11-24T00:48:55.346Z,3.97
2022-11-24T00:51:24.692Z,3.15
2022-11-24T00:53:51.161Z,4.28
2022-11-24T00:56:17.538Z,3.00
2022-11-24T00:58:43.940Z,3.88
2022-11-24T01:01:14.836Z,2.95
2022-11-24T01:03:42.404Z,3.25
2022-11-24T01:06:14.491Z,3.08
2022-11-24T01:08:41.576Z,4.27
2022-11-24T01:11:12.722Z,3.40
2022-11-24T01:13:40.235Z,2.80
2022-11-24T01:16:06.990Z,2.45
2022-11-24T01:18:33.516Z,2.78
2022-11-24T01:21:09.600Z,3.25
2022-11-24T01:23:36.732Z,2.70
2022-11-24T01:26:08.523Z,2.45
2022-11-24T01:28:35.146Z,2.08
2022-11-24T01:31:04.535Z,3.20
2022-11-24T01:33:32.725Z,2.88
2022-11-24T01:35:59.453Z,2.72
2022-11-24T01:38:26.877Z,3.38
2022-11-24T01:41:05.653Z,2.95
2022-11-24T01:43:34.461Z,3.63
2022-11-24T01:46:26.327Z,3.05
2022-11-24T01:49:11.549Z,2.90
2022-11-24T01:51:44.853Z,3.05
2022-11-24T01:54:20.116Z,3.35
2022-11-24T01:56:51.125Z,2.97
2022-11-24T01:59:20.704Z,2.47
2022-11-24T02:01:49.214Z,2.40
2022-11-24T02:04:18.534Z,2.38
2022-11-24T02:06:46.717Z,2.25
2022-11-24T02:09:23.824Z,3.03
2022-11-24T02:11:53.763Z,2.72
2022-11-24T02:14:23.494Z,2.47
2022-11-24T02:16:51.640Z,3.25
2022-11-24T02:19:52.883Z,3.08
2022-11-24T02:22:28.193Z,2.90
2022-11-24T02:25:20.457Z,2.17
2022-11-24T02:27:52.195Z,2.30
2022-11-24T02:30:20.359Z,3.08
2022-11-24T02:32:46.706Z,1.70
2022-11-24T02:35:13.478Z,2.17
2022-11-24T02:37:39.824Z,3.65
2022-11-24T02:40:06.905Z,2.50
2022-11-24T02:42:39.845Z,2.30
2022-11-24T02:47:33.168Z,2.08
2022-11-24T02:49:59.552Z,2.83
2022-11-24T02:52:25.923Z,2.28
2022-11-24T02:54:52.275Z,3.08
2022-11-24T02:57:18.706Z,2.10
2022-11-24T02:59:46.453Z,2.42
2022-11-24T03:02:12.939Z,1.80
2022-11-24T03:04:39.303Z,2.20
2022-11-24T03:07:05.726Z,2.58
2022-11-24T03:09:32.160Z,2.67
2022-11-24T03:11:58.829Z,2.03
2022-11-24T03:14:25.249Z,1.67
2022-11-24T03:16:51.640Z,2.17
2022-11-24T03:19:18.043Z,2.05
2022-11-24T03:21:44.884Z,2.40
2022-11-24T03:24:11.332Z,1.85
2022-11-24T03:26:37.755Z,1.70
2022-11-24T03:29:04.185Z,2.15
2022-11-24T03:31:30.716Z,2.03
2022-11-24T03:33:57.162Z,1.80
2022-11-24T03:36:23.500Z,2.35
2022-11-24T03:38:50.012Z,2.10
2022-11-24T03:41:16.408Z,2.50
2022-11-24T03:43:44.314Z,2.15
2022-11-24T03:46:12.213Z,2.22
2022-11-24T03:48:39.176Z,2.50
2022-11-24T03:51:05.755Z,2.72
2022-11-24T03:53:33.469Z,1.98
2022-11-24T03:55:59.995Z,2.55
2022-11-24T03:58:26.421Z,2.63
2022-11-24T04:00:54.075Z,3.10
2022-11-24T04:03:20.865Z,1.90
2022-11-24T04:05:47.554Z,2.55
2022-11-24T04:08:15.998Z,1.92
2022-11-24T04:10:42.448Z,2.10
2022-11-24T04:13:14.765Z,2.33
2022-11-24T04:15:42.908Z,2.00
2022-11-24T04:18:10.992Z,2.40
2022-11-24T04:20:37.840Z,1.92
2022-11-24T04:23:04.348Z,2.17
2022-11-24T04:25:30.829Z,2.60
2022-11-24T04:27:57.919Z,3.05
2022-11-24T04:30:26.119Z,2.50
2022-11-24T04:32:52.541Z,2.53
2022-11-24T04:35:19.579Z,3.28
2022-11-24T04:37:46.073Z,2.67
2022-11-24T04:40:13.121Z,2.30
2022-11-24T04:42:39.449Z,2.88
2022-11-24T04:45:06.713Z,2.88
2022-11-24T04:47:33.293Z,3.20
2022-11-24T04:50:00.176Z,2.20
2022-11-24T04:52:26.542Z,3.15
2022-11-24T04:54:53.013Z,2.92
2022-11-24T04:57:22.055Z,3.30
2022-11-24T04:59:49.444Z,3.13
2022-11-24T05:02:15.964Z,2.65
2022-11-24T05:04:42.542Z,4.63
2022-11-24T05:07:17.974Z,3.13
2022-11-24T05:10:04.671Z,3.10
2022-11-24T05:12:31.352Z,2.80
2022-11-24T05:15:02.327Z,2.70
2022-11-24T05:17:34.363Z,2.95
2022-11-24T05:20:00.901Z,2.70
2022-11-24T05:22:29.176Z,2.50
2022-11-24T05:24:55.669Z,3.80
2022-11-24T05:27:22.019Z,3.75
2022-11-24T05:29:48.486Z,3.80
2022-11-24T05:32:14.871Z,2.97
2022-11-24T05:34:41.278Z,3.20
2022-11-24T05:37:08.165Z,3.35
2022-11-24T05:39:38.089Z,3.60
2022-11-24T05:42:25.544Z,4.03
2022-11-24T05:44:52.830Z,2.97
2022-11-24T05:47:19.664Z,4.72
2022-11-24T05:49:46.028Z,4.95
2022-11-24T05:52:12.564Z,4.47
2022-11-24T05:54:39.084Z,4.15
2022-11-24T05:57:05.557Z,5.55
2022-11-24T05:59:32.117Z,3.17
2022-11-24T06:01:58.646Z,4.20
2022-11-24T06:04:25.239Z,4.05
2022-11-24T06:06:51.773Z,3.28
2022-11-24T06:09:18.230Z,2.72
2022-11-24T06:11:44.566Z,3.95
2022-11-24T06:14:11.650Z,3.70
2022-11-24T06:16:38.316Z,4.25
2022-11-24T06:19:04.909Z,4.28
2022-11-24T06:21:31.776Z,4.13
2022-11-24T06:23:58.490Z,4.18
2022-11-24T06:26:24.831Z,4.00
2022-11-24T06:28:51.243Z,3.95
2022-11-24T06:31:17.692Z,3.40
2022-11-24T06:33:44.271Z,5.35
2022-11-24T06:36:13.321Z,5.07
2022-11-24T06:38:39.727Z,5.00
2022-11-24T06:41:14.650Z,3.80
2022-11-24T06:43:41.053Z,4.13
2022-11-24T06:46:07.566Z,4.90
2022-11-24T06:48:34.072Z,3.72
2022-11-24T06:51:09.036Z,3.45
2022-11-24T06:53:38.203Z,4.25
2022-11-24T06:56:12.112Z,3.92
2022-11-24T06:58:43.913Z,3.17
2022-11-24T07:01:22.299Z,4.32
2022-11-24T07:03:49.880Z,3.00
2022-11-24T07:06:17.083Z,3.22
2022-11-24T07:08:44.008Z,3.38
2022-11-24T07:11:15.372Z,2.90
2022-11-24T07:13:42.774Z,4.25
2022-11-24T07:16:12.198Z,4.38
2022-11-24T07:18:38.904Z,4.75
2022-11-24T07:21:05.491Z,4.07
2022-11-24T07:23:31.845Z,4.03
2022-11-24T07:26:02.382Z,3.97
2022-11-24T07:28:33.373Z,3.97
2022-11-24T07:31:05.255Z,4.50
2022-11-24T07:33:31.765Z,4.47
2022-11-24T07:36:00.237Z,4.15
2022-11-24T07:38:26.677Z,3.40
2022-11-24T07:40:53.024Z,3.70
2022-11-24T07:43:20.419Z,3.50
2022-11-24T07:45:52.502Z,3.33
2022-11-24T07:48:18.952Z,4.43
2022-11-24T07:50:45.374Z,3.53
2022-11-24T07:53:11.779Z,3.78
2022-11-24T07:55:38.212Z,3.65
2022-11-24T07:58:04.571Z,3.75
2022-11-24T08:00:30.982Z,3.30
2022-11-24T08:02:57.335Z,4.30
2022-11-24T08:05:23.768Z,4.00
2022-11-24T08:07:50.343Z,4.13
2022-11-24T08:10:16.966Z,3.45
2022-11-24T08:12:44.056Z,3.53
2022-11-24T08:15:11.502Z,2.47
2022-11-24T08:17:38.135Z,5.35
2022-11-24T08:20:05.305Z,3.17
2022-11-24T08:22:31.759Z,3.90
2022-11-24T08:24:58.293Z,2.50
2022-11-24T08:27:24.781Z,2.63
2022-11-24T08:29:51.144Z,2.83
2022-11-24T08:32:22.178Z,2.90
2022-11-24T08:34:49.268Z,3.45
2022-11-24T08:37:15.623Z,2.90
2022-11-24T08:39:41.996Z,2.75
2022-11-24T08:42:08.428Z,2.60
2022-11-24T08:44:34.930Z,2.00
2022-11-24T08:47:01.607Z,2.13
2022-11-24T08:49:28.063Z,2.80
2022-11-24T08:51:57.201Z,3.03
2022-11-24T08:54:25.244Z,3.20
2022-11-24T08:56:51.624Z,3.08
2022-11-24T08:59:18.257Z,3.28
2022-11-24T09:01:44.802Z,2.47
2022-11-24T09:04:11.324Z,2.58
2022-11-24T09:06:37.795Z,3.13
2022-11-24T09:09:04.247Z,2.58
2022-11-24T09:11:33.507Z,2.70
2022-11-24T09:14:00.213Z,2.70
2022-11-24T09:16:28.593Z,3.67
2022-11-24T09:18:57.682Z,2.28
2022-11-24T09:21:24.075Z,2.63
2022-11-24T09:23:52.284Z,2.22
2022-11-24T09:26:24.907Z,2.72
2022-11-24T09:28:54.390Z,1.77
2022-11-24T09:31:23.589Z,3.40
2022-11-24T09:33:50.689Z,3.40
2022-11-24T09:36:17.010Z,1.70
2022-11-24T09:38:43.488Z,2.10
2022-11-24T09:41:37.754Z,2.25
2022-11-24T09:44:45.966Z,1.90
2022-11-24T09:47:23.276Z,3.13
2022-11-24T09:50:03.006Z,3.20
2022-11-24T09:52:43.676Z,2.97
2022-11-24T09:55:29.854Z,7.93
2022-11-24T09:58:09.138Z,10.18
2022-11-24T10:00:37.133Z,8.52
2022-11-24T10:03:04.359Z,3.72
2022-11-24T10:05:35.429Z,2.55
2022-11-24T10:08:23.467Z,3.85
2022-11-24T10:10:57.185Z,2.75
2022-11-24T10:13:51.376Z,2.95
2022-11-24T10:16:32.187Z,2.85
2022-11-24T10:19:14.392Z,3.13
2022-11-24T10:22:08.057Z,2.80
2022-11-24T10:24:46.710Z,2.50
2022-11-24T10:27:23.937Z,2.10
2022-11-24T10:29:52.591Z,2.30
2022-11-24T10:32:25.132Z,2.45
2022-11-24T10:34:52.914Z,2.97
2022-11-24T10:37:33.757Z,2.38
2022-11-24T10:40:33.437Z,2.28
2022-11-24T10:43:00.841Z,1.77
2022-11-24T10:45:28.347Z,2.45
2022-11-24T10:47:54.893Z,1.67
2022-11-24T10:50:24.080Z,1.88
2022-11-24T10:53:11.017Z,2.33
2022-11-24T10:55:58.866Z,1.63
2022-11-24T10:58:38.035Z,1.73
2022-11-24T11:01:13.944Z,2.25
2022-11-24T11:03:47.885Z,1.45
2022-11-24T11:06:25.971Z,2.40
2022-11-24T11:09:07.337Z,1.75
2022-11-24T11:11:39.119Z,2.25
2022-11-24T11:14:07.369Z,2.10
2022-11-24T11:16:53.390Z,1.55
2022-11-24T11:19:49.305Z,1.42
2022-11-24T11:22:28.832Z,1.20
2022-11-24T11:25:29.566Z,2.28
2022-11-24T11:28:31.375Z,1.85
2022-11-24T11:34:09.585Z,1.35
2022-11-24T11:36:46.237Z,2.20
2022-11-24T11:39:20.462Z,1.98
2022-11-24T11:41:49.661Z,2.17
2022-11-24T11:44:37.074Z,1.67
2022-11-24T11:47:15.175Z,1.65
2022-11-24T11:49:41.653Z,1.52
2022-11-24T11:52:18.080Z,1.95
2022-11-24T11:55:12.276Z,1.20
2022-11-24T11:58:20.476Z,2.35
2022-11-24T12:00:57.228Z,1.17
2022-11-24T12:03:50.250Z,2.17
2022-11-24T12:06:25.446Z,1.85
2022-11-24T12:09:20.731Z,1.30
2022-11-24T12:12:23.878Z,1.60
2022-11-24T12:15:11.003Z,1.42
2022-11-24T12:17:56.705Z,1.75
2022-11-24T12:20:33.122Z,1.60
2022-11-24T12:23:11.191Z,1.30
2022-11-24T12:25:44.877Z,1.35
2022-11-24T12:28:28.022Z,1.52
2022-11-24T12:31:34.322Z,1.15
2022-11-24T12:34:24.987Z,1.92
2022-11-24T12:37:13.033Z,1.00
2022-11-24T12:40:01.040Z,1.45
2022-11-24T12:42:46.440Z,1.30
2022-11-24T12:45:16.651Z,2.17
2022-11-24T12:48:04.396Z,1.27
2022-11-24T12:50:38.005Z,1.33
2022-11-24T12:53:16.847Z,2.35
2022-11-24T12:55:44.579Z,1.67
2022-11-24T12:58:34.555Z,1.40
2022-11-24T13:01:04.216Z,1.35
2022-11-24T13:03:58.637Z,2.78
2022-11-24T13:06:49.112Z,1.17
2022-11-24T13:09:16.207Z,1.40
2022-11-24T13:11:45.532Z,1.58
2022-11-24T13:14:16.491Z,1.13
2022-11-24T13:22:24.171Z,1.30
2022-11-24T13:25:24.831Z,1.73
2022-11-24T13:27:59.678Z,1.55
2022-11-24T13:30:35.101Z,1.67
2022-11-24T13:33:14.259Z,1.52
2022-11-24T13:36:01.701Z,1.52
2022-11-24T13:38:44.292Z,1.40
2022-11-24T13:41:32.064Z,1.33
2022-11-24T13:44:14.568Z,1.67
2022-11-24T13:47:06.248Z,1.10
2022-11-24T13:49:41.864Z,2.08
2022-11-24T13:52:36.570Z,1.20
2022-11-24T13:55:25.774Z,1.30
2022-11-24T13:57:57.073Z,1.25
2022-11-24T14:00:33.832Z,1.50
2022-11-24T14:03:23.354Z,1.48
2022-11-24T14:05:52.935Z,1.33
2022-11-24T14:08:32.885Z,1.25
2022-11-24T14:11:01.399Z,2.25
2022-11-24T14:13:30.628Z,1.50
2022-11-24T14:15:59.814Z,1.38
2022-11-24T14:18:27.196Z,1.40
2022-11-24T14:20:53.606Z,1.10
2022-11-24T14:23:20.032Z,2.10
2022-11-24T14:25:51.147Z,1.92
2022-11-24T14:28:24.397Z,3.15
2022-11-24T14:30:52.254Z,1.50
2022-11-24T14:33:19.900Z,1.25
2022-11-24T14:35:49.537Z,1.80
2022-11-24T14:38:15.991Z,1.60
2022-11-24T14:40:43.642Z,1.25
2022-11-24T14:43:16.648Z,1.95
2022-11-24T14:48:20.719Z,3.63
2022-11-24T14:50:47.341Z,2.10
2022-11-24T14:53:21.959Z,2.70
2022-11-24T14:56:08.468Z,2.70
2022-11-24T14:58:40.479Z,2.25
2022-11-24T15:01:26.802Z,3.08
2022-11-24T15:07:22.528Z,2.75
2022-11-24T15:09:54.860Z,1.70
2022-11-24T15:12:28.381Z,1.52
2022-11-24T15:14:58.069Z,1.73
2022-11-24T15:17:28.333Z,2.22
2022-11-24T15:20:01.966Z,1.58
2022-11-24T15:22:40.340Z,1.52
2022-11-24T15:25:25.869Z,1.50
2022-11-24T15:27:53.092Z,1.88
2022-11-24T15:30:19.468Z,1.55
2022-11-24T15:32:50.746Z,1.48
2022-11-24T15:35:17.172Z,2.17
2022-11-24T15:37:43.564Z,1.70
2022-11-24T15:40:13.752Z,1.52
2022-11-24T15:42:40.809Z,1.60
2022-11-24T15:45:07.612Z,2.03
2022-11-24T15:47:33.952Z,1.58
2022-11-24T15:50:00.406Z,2.00
2022-11-24T15:52:26.792Z,1.83
2022-11-24T15:54:55.953Z,1.83
2022-11-24T15:57:22.442Z,1.77
2022-11-24T15:59:48.956Z,2.15
2022-11-24T16:02:15.575Z,2.55
2022-11-24T16:04:42.039Z,2.65
2022-11-24T16:07:12.271Z,2.17
2022-11-24T16:09:38.740Z,4.20
2022-11-24T16:12:07.976Z,3.10
2022-11-24T16:14:35.679Z,2.03
2022-11-24T16:17:03.147Z,2.10
2022-11-24T16:19:29.549Z,2.10
2022-11-24T16:21:55.990Z,3.08
2022-11-24T16:24:22.450Z,2.83
2022-11-24T16:26:48.789Z,2.00
2022-11-24T16:29:15.208Z,3.15
2022-11-24T16:31:43.360Z,2.13
2022-11-24T16:34:10.042Z,2.30
2022-11-24T16:36:36.402Z,3.15
2022-11-24T16:39:02.914Z,2.35
2022-11-24T16:41:29.282Z,3.30
2022-11-24T16:43:55.743Z,2.53
2022-11-24T16:46:24.370Z,3.13
2022-11-24T16:48:53.586Z,2.50
2022-11-24T16:51:22.000Z,3.15
2022-11-24T16:53:56.046Z,3.75
2022-11-24T16:56:22.422Z,3.22
2022-11-24T16:58:48.770Z,2.72
2022-11-24T17:01:15.652Z,2.50
2022-11-24T17:03:42.135Z,2.70
2022-11-24T17:06:13.092Z,3.30
2022-11-24T17:08:40.881Z,3.08
2022-11-24T17:11:14.948Z,2.97
2022-11-24T17:13:42.319Z,3.03
2022-11-24T17:16:11.519Z,3.80
2022-11-24T17:18:38.740Z,3.13
2022-11-24T17:21:09.812Z,3.70
2022-11-24T17:23:37.969Z,5.25
2022-11-24T17:26:06.862Z,4.72
2022-11-24T17:28:34.774Z,6.80
2022-11-24T17:31:19.642Z,6.47
2022-11-24T17:33:53.424Z,6.80
2022-11-24T17:36:20.349Z,6.95
2022-11-24T17:38:48.931Z,6.88
2022-11-24T17:41:15.792Z,6.22
2022-11-24T17:43:42.171Z,6.47
2022-11-24T17:46:10.295Z,6.32
2022-11-24T17:48:36.777Z,6.78
2022-11-24T17:51:06.014Z,6.22
2022-11-24T17:53:32.426Z,7.63
2022-11-24T17:56:00.663Z,6.78
2022-11-24T17:58:31.731Z,7.28
2022-11-24T18:00:58.469Z,7.00
2022-11-24T18:03:28.462Z,7.03
2022-11-24T18:05:55.840Z,5.88
2022-11-24T18:08:23.941Z,5.80
2022-11-24T18:10:50.558Z,6.03
2022-11-24T18:13:34.329Z,5.75
2022-11-24T18:16:07.531Z,5.22
2022-11-24T18:18:40.030Z,6.22
2022-11-24T18:21:11.450Z,5.13
2022-11-24T18:23:37.798Z,7.50
2022-11-24T18:26:05.770Z,9.50
2022-11-24T18:28:32.666Z,7.30
2022-11-24T18:31:04.377Z,4.97
2022-11-24T18:33:31.080Z,4.35
2022-11-24T18:35:59.682Z,3.80
2022-11-24T18:38:27.142Z,5.90
2022-11-24T18:41:00.275Z,6.38
2022-11-24T18:43:29.009Z,4.15
2022-11-24T18:45:56.128Z,4.50
2022-11-24T18:48:24.529Z,4.40
2022-11-24T18:50:52.512Z,5.68
2022-11-24T18:53:19.757Z,6.45
2022-11-24T18:56:00.348Z,6.18
2022-11-24T18:58:29.833Z,5.65
2022-11-24T19:01:21.050Z,5.57
2022-11-24T19:03:50.213Z,4.57
2022-11-24T19:06:19.794Z,4.88
2022-11-24T19:08:47.265Z,4.82
2022-11-24T19:11:21.843Z,5.45
2022-11-24T19:13:49.024Z,8.48
2022-11-24T19:16:16.836Z,14.27
2022-11-24T19:18:46.481Z,30.35
2022-11-24T19:21:17.967Z,33.35
2022-11-24T19:23:44.296Z,33.00
2022-11-24T19:26:11.029Z,25.20
2022-11-24T19:28:37.456Z,22.75
2022-11-24T19:31:09.995Z,28.23
2022-11-24T19:33:36.433Z,32.22
2022-11-24T19:36:14.683Z,44.40
2022-11-24T19:38:42.395Z,60.38
2022-11-24T19:41:11.726Z,63.17
2022-11-24T19:43:39.094Z,61.60
2022-11-24T19:46:16.999Z,54.22
2022-11-24T19:48:45.978Z,52.25
2022-11-24T19:51:18.506Z,42.60
2022-11-24T19:53:45.678Z,25.77
2022-11-24T19:56:14.343Z,15.38
2022-11-24T19:58:41.382Z,9.75
2022-11-24T20:01:18.211Z,8.05
2022-11-24T20:03:46.192Z,8.70
2022-11-24T20:06:14.181Z,7.63
2022-11-24T20:08:41.860Z,6.85
2022-11-24T20:11:16.829Z,6.75
2022-11-24T20:13:45.589Z,7.15
2022-11-24T20:16:17.578Z,6.07
2022-11-24T20:18:46.964Z,6.60
2022-11-24T20:21:19.139Z,9.00
2022-11-24T20:23:55.242Z,9.32
2022-11-24T20:26:24.687Z,10.02
2022-11-24T20:28:53.331Z,7.22
2022-11-24T20:31:22.587Z,7.07
2022-11-24T20:33:49.034Z,5.47
2022-11-24T20:36:26.376Z,5.80
2022-11-24T20:38:53.326Z,5.75
2022-11-24T20:41:22.960Z,5.78
2022-11-24T20:43:49.953Z,6.20
2022-11-24T20:46:22.137Z,10.60
2022-11-24T20:48:48.868Z,9.95
2022-11-24T20:51:18.587Z,9.52
2022-11-24T20:53:45.039Z,9.55
2022-11-24T20:56:15.081Z,10.15
2022-11-24T20:58:42.539Z,8.48
2022-11-24T21:01:14.166Z,7.68
2022-11-24T21:03:43.413Z,6.40
2022-11-24T21:06:11.924Z,6.35
2022-11-24T21:08:40.140Z,6.32
2022-11-24T21:11:08.658Z,6.85
2022-11-24T21:13:38.000Z,7.38
2022-11-24T21:16:22.505Z,8.20
2022-11-24T21:18:52.283Z,6.15
2022-11-24T21:21:20.553Z,6.60
2022-11-24T21:23:47.671Z,7.00
2022-11-24T21:26:17.078Z,6.20
2022-11-24T21:28:45.435Z,6.20
2022-11-24T21:31:18.809Z,8.00
2022-11-24T21:33:47.811Z,7.25
2022-11-24T21:36:16.060Z,6.25
2022-11-24T21:38:42.876Z,7.32
2022-11-24T21:41:10.829Z,6.57
2022-11-24T21:43:37.598Z,5.85
2022-11-24T21:46:09.185Z,6.40
2022-11-24T21:48:36.787Z,5.50
2022-11-24T21:51:05.895Z,6.20
2022-11-24T21:53:36.897Z,5.57
2022-11-24T21:56:06.274Z,5.00
2022-11-24T21:58:33.360Z,5.43
2022-11-24T22:01:05.068Z,6.35
2022-11-24T22:03:31.966Z,6.70
2022-11-24T22:05:59.977Z,8.32
2022-11-24T22:08:28.239Z,7.97
2022-11-24T22:11:11.819Z,6.50
2022-11-24T22:13:38.444Z,6.70
2022-11-24T22:16:07.758Z,7.35
2022-11-24T22:18:39.349Z,6.55
2022-11-24T22:21:07.821Z,6.30
2022-11-24T22:23:35.647Z,7.20
2022-11-24T22:26:06.874Z,7.97
2022-11-24T22:28:35.060Z,7.22
2022-11-24T22:31:12.409Z,7.45
2022-11-24T22:33:39.096Z,7.05
2022-11-24T22:36:06.626Z,7.53
2022-11-24T22:38:34.019Z,5.75
2022-11-24T22:41:05.749Z,6.05
2022-11-24T22:43:34.506Z,6.63
2022-11-24T22:46:05.442Z,7.18
2022-11-24T22:48:32.333Z,6.65
2022-11-24T22:51:06.572Z,6.43
2022-11-24T22:53:33.716Z,6.07
2022-11-24T22:56:02.643Z,5.85
2022-11-24T22:58:30.539Z,6.60
2022-11-24T23:00:56.907Z,5.70
2022-11-24T23:03:23.573Z,6.95
2022-11-24T23:05:49.988Z,6.38
2022-11-24T23:08:16.376Z,5.50
2022-11-24T23:10:42.740Z,5.95
2022-11-24T23:13:09.091Z,5.45
2022-11-24T23:15:35.481Z,4.65
2022-11-24T23:18:01.886Z,5.45
2022-11-24T23:20:28.214Z,5.15
2022-11-24T23:22:56.768Z,4.63
2022-11-24T23:25:23.133Z,5.28
2022-11-24T23:27:49.572Z,4.15
2022-11-24T23:30:16.095Z,4.57
2022-11-24T23:32:42.526Z,3.83
2022-11-24T23:35:13.643Z,4.25
2022-11-24T23:38:06.117Z,3.70
2022-11-24T23:40:28.207Z,5.30
2022-11-24T23:42:54.936Z,4.53
2022-11-24T23:45:21.335Z,4.32
2022-11-24T23:47:47.672Z,4.25
2022-11-24T23:50:14.108Z,4.05
2022-11-24T23:52:40.462Z,4.78
2022-11-24T23:55:07.339Z,5.07
2022-11-24T23:57:33.792Z,4.95
